Virtual LH

Virtual LH. There's no better way to fly
Since 2013.



AIRPORT MAP

METAR AND TAF INFORMATION

METAR FOR LDRI
ADDS - METARS form results

(0032 UTC 23 July 2019)
Data provider http://aviationweather.gov/metar/data/
 
METAR text: LDRI 230030Z 04006KT CAVOK 26/14 Q1020
Conditions at: LDRI (RIJEKA/OMISALJ , HR) observed 0030 UTC 23 July 2019
Temperature: 26.0°C (79°F)
Dewpoint: 14.0°C (57°F) [RH = 48%]
Pressure (altimeter): 30.12 inches Hg (1020.0 mb)
Winds: from the NE (40 degrees) at 7 MPH (6 knots; 3.1 m/s)
Visibility: 6 or more miles (10+ km)
Ceiling: ceiling and visibility are OK
Clouds: unknown
Weather: no significant weather observed at this time

METAR text: LDRI 230000Z 04007KT CAVOK 27/14 Q1020
Conditions at: LDRI (RIJEKA/OMISALJ , HR) observed 0000 UTC 23 July 2019
Temperature: 27.0°C (81°F)
Dewpoint: 14.0°C (57°F) [RH = 45%]
Pressure (altimeter): 30.12 inches Hg (1020.0 mb)
Winds: from the NE (40 degrees) at 8 MPH (7 knots; 3.6 m/s)
Visibility: 6 or more miles (10+ km)
Ceiling: ceiling and visibility are OK
Clouds: unknown
Weather: no significant weather observed at this time

Forecast for: LDRI (RIJEKA/OMISALJ , HR)
Text: TAF LDRI 222325Z 2300/2400 04006KT CAVOK TX33/2314Z TN22/2303Z
Forecast period: 0000 to 0900 UTC 23 July 2019
Forecast type: FROM: standard forecast or significant change
Winds: from the NE (40 degrees) at 7 MPH (6 knots; 3.1 m/s)
Visibility: 6 or more miles 10+ km)
Ceiling: unknown
Clouds: missing
Weather: no significant weather forecast for this period
Text: BECMG 2309/2311 29008KT
Forecast period: 0900 to 1600 UTC 23 July 2019
Forecast type: BECOMING: Conditions expected to become as follows by 1100 UTC 23 July 2019
Winds: from the WNW (290 degrees) at 9 MPH (8 knots; 4.1 m/s)
Visibility: 6 or more miles 10+ km)
Ceiling: unknown
Clouds: missing
Weather: no significant weather forecast for this period
Text: BECMG 2316/2318 VRB02KT
Forecast period: 1600 UTC 23 July 2019 to 0000 UTC 24 July 2019
Forecast type: BECOMING: Conditions expected to become as follows by 1800 UTC 23 July 2019
Winds: variable direction winds at 2 MPH (2 knots; 1.0 m/s)
Visibility: 6 or more miles 10+ km)
Ceiling: unknown
Clouds: missing
Weather: no significant weather forecast for this period

RUNWAY INFORMATION

Runway 14 Runway length 8164 ft Runway width 148 ft
Runway elevation 264 ft Runway displaced threshold 0 ft Runway heading 144
Runway 32 Runway length 8164 ft Runway width 148 ft
Runway elevation 246 ft Runway displaced threshold 0 ft Runway heading 324

AIRPORT FREQUENCIES

Type APP Name APP Frequency 119 MHZ
Type TWR Name TWR Frequency 119 MHZ

AIRPORT NEAR NAVIGATION AIDS

Type NDB Name Breza Frequency 400 KHZ
Type NDB Name Kozala Frequency 438 KHZ
Type VOR-DME Name Rijeka Frequency 117800 KHZ